createdAt,value
2018-09-21T00:00:01.061Z,5.80
2018-09-21T00:02:35.747Z,10.73
2018-09-21T00:05:10.316Z,5.07
2018-09-21T00:07:44.928Z,7.40
2018-09-21T00:10:19.573Z,9.27
2018-09-21T00:12:54.049Z,6.80
2018-09-21T00:15:28.567Z,9.57
2018-09-21T00:18:03.236Z,5.10
2018-09-21T00:20:37.883Z,6.03
2018-09-21T00:23:12.411Z,9.23
2018-09-21T00:25:46.937Z,5.43
2018-09-21T00:28:21.449Z,6.47
2018-09-21T00:30:56.077Z,5.77
2018-09-21T00:33:30.667Z,8.80
2018-09-21T00:36:05.325Z,7.70
2018-09-21T00:38:40.086Z,10.27
2018-09-21T00:41:14.748Z,5.40
2018-09-21T00:43:49.341Z,6.63
2018-09-21T00:46:23.891Z,7.13
2018-09-21T00:48:58.452Z,5.97
2018-09-21T00:51:33.211Z,8.77
2018-09-21T00:54:07.849Z,6.63
2018-09-21T00:56:42.468Z,8.33
2018-09-21T00:59:17.116Z,8.60
2018-09-21T01:01:51.785Z,11.47
2018-09-21T01:04:26.665Z,5.77
2018-09-21T01:07:01.225Z,5.97
2018-09-21T01:09:35.785Z,6.37
2018-09-21T01:12:10.431Z,10.30
2018-09-21T01:14:45.089Z,9.77
2018-09-21T01:17:19.625Z,7.13
2018-09-21T01:19:54.304Z,12.77
2018-09-21T01:22:28.908Z,10.50
2018-09-21T01:25:03.538Z,7.93
2018-09-21T01:27:38.017Z,6.93
2018-09-21T01:30:12.558Z,8.03
2018-09-21T01:32:47.277Z,7.40
2018-09-21T01:35:21.732Z,7.60
2018-09-21T01:37:56.342Z,5.57
2018-09-21T01:40:30.838Z,7.53
2018-09-21T01:43:05.188Z,10.90
2018-09-21T01:45:39.687Z,7.43
2018-09-21T01:48:14.318Z,6.50
2018-09-21T01:51:11.441Z,6.87
2018-09-21T01:53:56.044Z,9.87
2018-09-21T01:56:30.549Z,7.07
2018-09-21T01:59:05.197Z,16.17
2018-09-21T02:01:39.710Z,8.10
2018-09-21T02:04:14.110Z,8.70
2018-09-21T02:06:48.696Z,7.40
2018-09-21T02:09:23.261Z,6.33
2018-09-21T02:11:57.805Z,6.07
2018-09-21T02:14:32.408Z,6.07
2018-09-21T02:17:06.952Z,7.33
2018-09-21T02:19:41.570Z,7.03
2018-09-21T02:22:16.257Z,7.47
2018-09-21T02:24:50.720Z,6.03
2018-09-21T02:27:25.310Z,8.33
2018-09-21T02:30:00.002Z,11.67
2018-09-21T02:32:34.612Z,6.87
2018-09-21T02:35:09.543Z,7.93
2018-09-21T02:37:44.211Z,11.60
2018-09-21T02:40:19.194Z,6.07
2018-09-21T02:42:53.730Z,9.00
2018-09-21T02:45:28.193Z,9.77
2018-09-21T02:48:02.808Z,8.03
2018-09-21T02:50:37.713Z,6.90
2018-09-21T02:53:12.348Z,6.33
2018-09-21T02:55:46.848Z,8.23
2018-09-21T02:58:21.466Z,6.60
2018-09-21T03:00:56.321Z,7.60
2018-09-21T03:03:31.101Z,6.40
2018-09-21T03:06:05.749Z,9.90
2018-09-21T03:08:40.333Z,7.60
2018-09-21T03:11:14.957Z,8.13
2018-09-21T03:13:49.501Z,8.37
2018-09-21T03:16:24.206Z,6.00
2018-09-21T03:18:58.881Z,8.53
2018-09-21T03:21:33.460Z,11.67
2018-09-21T03:24:07.904Z,4.70
2018-09-21T03:26:42.505Z,9.07
2018-09-21T03:29:16.941Z,6.97
2018-09-21T03:31:51.609Z,9.87
2018-09-21T03:34:40.894Z,7.23
2018-09-21T03:37:15.442Z,7.17
2018-09-21T03:39:49.845Z,6.50
2018-09-21T03:42:24.385Z,14.27
2018-09-21T03:44:59.114Z,8.43
2018-09-21T03:47:33.605Z,8.20
2018-09-21T03:50:08.028Z,4.83
2018-09-21T03:52:42.578Z,8.53
2018-09-21T03:55:16.961Z,7.77
2018-09-21T03:57:51.583Z,6.10
2018-09-21T04:00:26.202Z,7.77
2018-09-21T04:03:00.821Z,6.97
2018-09-21T04:05:35.457Z,6.07
2018-09-21T04:08:10.173Z,9.97
2018-09-21T04:10:44.742Z,5.70
2018-09-21T04:13:19.432Z,8.60
2018-09-21T04:15:54.021Z,7.40
2018-09-21T04:18:28.412Z,7.23
2018-09-21T04:21:03.157Z,6.77
2018-09-21T04:23:37.885Z,8.50
2018-09-21T04:26:12.477Z,7.03
2018-09-21T04:28:46.937Z,8.87
2018-09-21T04:31:21.917Z,9.10
2018-09-21T04:33:56.580Z,7.77
2018-09-21T04:36:31.189Z,8.63
2018-09-21T04:39:08.764Z,6.80
2018-09-21T04:41:43.280Z,6.20
2018-09-21T04:44:23.370Z,7.77
2018-09-21T04:46:57.873Z,5.67
2018-09-21T04:49:32.277Z,7.37
2018-09-21T04:52:06.840Z,8.27
2018-09-21T04:54:41.357Z,11.47
2018-09-21T04:57:15.950Z,10.73
2018-09-21T04:59:50.642Z,6.77
2018-09-21T05:02:25.287Z,7.30
2018-09-21T05:04:59.889Z,8.87
2018-09-21T05:07:34.382Z,6.37
2018-09-21T05:10:08.999Z,9.10
2018-09-21T05:12:43.536Z,9.53
2018-09-21T05:15:18.213Z,7.00
2018-09-21T05:17:52.985Z,6.53
2018-09-21T05:20:27.692Z,8.27
2018-09-21T05:23:02.250Z,8.57
2018-09-21T05:25:36.896Z,6.60
2018-09-21T05:31:24.705Z,10.13
2018-09-21T05:33:59.449Z,14.07
2018-09-21T05:36:33.966Z,8.47
2018-09-21T05:39:11.113Z,9.33
2018-09-21T05:41:45.602Z,10.40
2018-09-21T05:44:20.230Z,9.30
2018-09-21T05:46:54.991Z,10.47
2018-09-21T05:49:29.474Z,8.23
2018-09-21T05:52:04.130Z,9.73
2018-09-21T05:54:38.881Z,7.17
2018-09-21T05:57:13.558Z,8.87
2018-09-21T05:59:48.137Z,6.57
2018-09-21T06:02:22.760Z,6.90
2018-09-21T06:05:03.965Z,7.20
2018-09-21T06:07:38.805Z,7.13
2018-09-21T06:10:13.387Z,13.63
2018-09-21T06:12:48.039Z,10.07
2018-09-21T06:15:22.688Z,7.83
2018-09-21T06:17:57.343Z,9.80
2018-09-21T06:20:31.978Z,10.47
2018-09-21T06:23:06.934Z,10.20
2018-09-21T06:25:41.393Z,8.73
2018-09-21T06:28:16.012Z,6.87
2018-09-21T06:30:50.600Z,12.90
2018-09-21T06:33:25.193Z,11.10
2018-09-21T06:35:59.792Z,8.67
2018-09-21T06:38:34.459Z,10.30
2018-09-21T06:41:09.194Z,12.20
2018-09-21T06:43:43.775Z,6.57
2018-09-21T06:46:18.404Z,10.37
2018-09-21T06:48:53.042Z,9.70
2018-09-21T06:51:27.713Z,8.00
2018-09-21T06:54:02.652Z,12.20
2018-09-21T06:56:37.348Z,7.67
2018-09-21T06:59:11.898Z,11.90
2018-09-21T07:01:46.594Z,13.10
2018-09-21T07:04:26.941Z,7.67
2018-09-21T07:07:01.573Z,11.17
2018-09-21T07:09:36.181Z,7.67
2018-09-21T07:12:10.704Z,7.93
2018-09-21T07:14:45.349Z,10.00
2018-09-21T07:17:19.886Z,8.63
2018-09-21T07:19:54.510Z,7.93
2018-09-21T07:22:29.185Z,7.17
2018-09-21T07:25:03.832Z,10.70
2018-09-21T07:27:38.497Z,6.93
2018-09-21T07:30:13.125Z,6.67
2018-09-21T07:32:47.759Z,9.80
2018-09-21T07:35:22.448Z,6.87
2018-09-21T07:37:57.005Z,9.37
2018-09-21T07:40:31.536Z,11.50
2018-09-21T07:43:06.221Z,8.20
2018-09-21T07:45:40.749Z,7.70
2018-09-21T07:48:15.246Z,7.00
2018-09-21T07:50:50.573Z,7.03
2018-09-21T07:53:25.134Z,6.40
2018-09-21T07:55:59.783Z,8.83
2018-09-21T07:58:34.310Z,6.10
2018-09-21T08:01:09.013Z,5.40
2018-09-21T08:03:43.630Z,7.40
2018-09-21T08:06:18.133Z,7.23
2018-09-21T08:08:52.662Z,6.00
2018-09-21T08:11:27.156Z,5.70
2018-09-21T08:14:01.711Z,5.90
2018-09-21T08:16:37.165Z,4.33
2018-09-21T08:19:11.641Z,5.93
2018-09-21T08:21:46.366Z,6.37
2018-09-21T08:24:24.856Z,4.23
2018-09-21T08:26:59.560Z,4.43
2018-09-21T08:29:34.163Z,6.13
2018-09-21T08:32:08.767Z,3.37
2018-09-21T08:34:43.476Z,8.03
2018-09-21T08:37:18.108Z,6.53
2018-09-21T08:39:52.661Z,7.37
2018-09-21T08:42:27.248Z,7.33
2018-09-21T08:45:01.799Z,5.57
2018-09-21T08:47:36.399Z,6.33
2018-09-21T08:50:11.174Z,4.80
2018-09-21T08:52:45.746Z,7.50
2018-09-21T08:55:20.301Z,7.63
2018-09-21T08:57:54.824Z,4.37
2018-09-21T09:00:29.364Z,4.40
2018-09-21T09:06:03.105Z,6.93
2018-09-21T09:08:37.784Z,6.70
2018-09-21T09:11:12.368Z,10.00
2018-09-21T09:13:46.864Z,8.03
2018-09-21T09:16:21.435Z,15.00
2018-09-21T09:18:55.869Z,9.23
2018-09-21T09:21:30.461Z,12.30
2018-09-21T09:24:04.997Z,7.73
2018-09-21T09:26:39.456Z,5.77
2018-09-21T09:29:14.056Z,7.40
2018-09-21T09:31:48.745Z,7.20
2018-09-21T09:34:23.321Z,9.30
2018-09-21T09:36:57.967Z,9.03
2018-09-21T09:39:32.546Z,12.10
2018-09-21T09:42:06.988Z,6.43
2018-09-21T09:44:41.415Z,12.47
2018-09-21T09:47:16.090Z,13.03
2018-09-21T09:49:50.664Z,7.20
2018-09-21T09:52:25.104Z,9.30
2018-09-21T09:54:59.801Z,6.37
2018-09-21T09:57:34.201Z,15.67
2018-09-21T10:00:09.185Z,17.03
2018-09-21T10:02:43.801Z,14.33
2018-09-21T10:05:18.469Z,8.63
2018-09-21T10:07:53.107Z,18.60
2018-09-21T10:10:27.635Z,10.50
2018-09-21T10:13:02.125Z,15.67
2018-09-21T10:15:36.910Z,12.23
2018-09-21T10:18:11.621Z,15.87
2018-09-21T10:20:46.266Z,13.50
2018-09-21T10:23:20.669Z,12.97
2018-09-21T10:25:55.334Z,14.57
2018-09-21T10:28:30.138Z,11.00
2018-09-21T10:31:04.607Z,12.43
2018-09-21T10:33:39.275Z,8.07
2018-09-21T10:36:13.770Z,17.13
2018-09-21T10:38:48.478Z,8.40
2018-09-21T10:41:22.773Z,16.90
2018-09-21T10:43:57.169Z,16.40
2018-09-21T10:46:31.784Z,13.53
2018-09-21T10:49:06.232Z,13.40
2018-09-21T10:51:41.013Z,18.00
2018-09-21T10:54:15.518Z,14.93
2018-09-21T10:56:50.491Z,14.77
2018-09-21T10:59:25.543Z,10.50
2018-09-21T11:02:00.027Z,16.67
2018-09-21T11:04:34.638Z,10.57
2018-09-21T11:07:09.136Z,17.17
2018-09-21T11:09:43.468Z,20.83
2018-09-21T11:12:18.052Z,18.63
2018-09-21T11:14:52.477Z,15.10
2018-09-21T11:17:27.065Z,18.80
2018-09-21T11:20:01.468Z,15.53
2018-09-21T11:22:35.948Z,16.50
2018-09-21T11:25:10.341Z,17.97
2018-09-21T11:27:44.681Z,18.97
2018-09-21T11:30:19.201Z,9.60
2018-09-21T11:32:53.785Z,9.40
2018-09-21T11:35:28.424Z,10.63
2018-09-21T11:38:03.013Z,10.80
2018-09-21T11:40:37.460Z,16.17
2018-09-21T11:43:12.148Z,9.00
2018-09-21T11:45:46.653Z,13.63
2018-09-21T11:48:21.179Z,12.03
2018-09-21T11:50:55.712Z,8.30
2018-09-21T11:53:30.330Z,13.67
2018-09-21T11:56:04.834Z,7.63
2018-09-21T11:58:39.405Z,13.80
2018-09-21T12:01:14.025Z,15.13
2018-09-21T12:03:48.571Z,12.63
2018-09-21T12:06:23.178Z,13.10
2018-09-21T12:08:57.756Z,16.40
2018-09-21T12:11:32.197Z,7.93
2018-09-21T12:14:06.654Z,11.43
2018-09-21T12:16:41.401Z,20.07
2018-09-21T12:19:15.970Z,10.77
2018-09-21T12:21:50.573Z,10.73
2018-09-21T12:24:25.099Z,10.30
2018-09-21T12:26:59.680Z,11.70
2018-09-21T12:29:34.349Z,8.47
2018-09-21T12:32:08.820Z,11.23
2018-09-21T12:34:43.352Z,14.13
2018-09-21T12:37:36.296Z,11.23
2018-09-21T12:40:23.941Z,13.23
2018-09-21T12:42:58.400Z,11.77
2018-09-21T12:45:33.121Z,9.27
2018-09-21T12:48:07.811Z,9.20
2018-09-21T12:50:42.390Z,5.60
2018-09-21T12:53:16.909Z,8.43
2018-09-21T12:55:51.208Z,9.20
2018-09-21T12:58:25.816Z,8.83
2018-09-21T13:01:00.273Z,6.53
2018-09-21T13:03:48.107Z,5.87
2018-09-21T13:06:22.719Z,7.63
2018-09-21T13:08:57.432Z,6.77
2018-09-21T13:11:32.093Z,6.77
2018-09-21T13:14:06.813Z,7.13
2018-09-21T13:16:41.290Z,6.13
2018-09-21T13:19:15.953Z,7.77
2018-09-21T13:21:50.742Z,7.13
2018-09-21T13:24:25.320Z,4.00
2018-09-21T13:26:59.764Z,4.87
2018-09-21T13:29:34.405Z,3.77
2018-09-21T13:32:09.399Z,5.03
2018-09-21T13:34:43.819Z,4.77
2018-09-21T13:37:18.268Z,3.87
2018-09-21T13:39:52.927Z,3.67
2018-09-21T13:42:27.510Z,4.83
2018-09-21T13:45:02.220Z,2.03
2018-09-21T13:47:36.893Z,3.50
2018-09-21T13:50:11.401Z,2.20
2018-09-21T13:52:46.001Z,1.77
2018-09-21T13:55:20.602Z,1.70
2018-09-21T13:57:55.264Z,4.57
2018-09-21T14:00:29.778Z,1.47
2018-09-21T14:03:04.330Z,2.23
2018-09-21T14:05:39.018Z,2.43
2018-09-21T14:08:13.449Z,2.27
2018-09-21T14:10:48.073Z,1.93
2018-09-21T14:13:22.606Z,2.87
2018-09-21T14:15:57.329Z,3.73
2018-09-21T14:18:31.825Z,3.83
2018-09-21T14:21:06.550Z,1.30
2018-09-21T14:23:41.179Z,4.23
2018-09-21T14:26:15.766Z,1.33
2018-09-21T14:28:50.316Z,3.07
2018-09-21T14:31:25.049Z,5.57
2018-09-21T14:33:59.537Z,5.93
2018-09-21T14:36:34.054Z,2.10
2018-09-21T14:39:10.076Z,2.70
2018-09-21T14:41:44.713Z,2.10
2018-09-21T14:44:19.257Z,2.20
2018-09-21T14:46:53.872Z,2.53
2018-09-21T14:49:28.560Z,1.17
2018-09-21T14:52:03.101Z,2.03
2018-09-21T14:54:53.117Z,2.37
2018-09-21T14:57:27.644Z,2.50
2018-09-21T15:00:02.642Z,1.30
2018-09-21T15:02:37.247Z,4.60
2018-09-21T15:05:11.944Z,3.70
2018-09-21T15:07:46.469Z,1.83
2018-09-21T15:10:21.330Z,4.33
2018-09-21T15:12:55.969Z,2.17
2018-09-21T15:15:30.677Z,1.03
2018-09-21T15:18:05.193Z,5.60
2018-09-21T15:20:39.788Z,1.20
2018-09-21T15:23:14.164Z,2.70
2018-09-21T15:25:48.590Z,2.20
2018-09-21T15:28:23.159Z,3.40
2018-09-21T15:30:57.630Z,3.87
2018-09-21T15:33:32.347Z,2.67
2018-09-21T15:36:06.940Z,2.33
2018-09-21T15:38:41.774Z,1.80
2018-09-21T15:41:16.297Z,1.70
2018-09-21T15:43:50.721Z,3.47
2018-09-21T15:46:25.357Z,1.73
2018-09-21T15:48:59.856Z,1.80
2018-09-21T15:51:35.073Z,3.53
2018-09-21T15:54:09.653Z,2.83
2018-09-21T15:56:44.265Z,2.00
2018-09-21T15:59:18.925Z,2.03
2018-09-21T16:02:16.073Z,3.63
2018-09-21T16:05:03.233Z,2.33
2018-09-21T16:07:37.773Z,3.87
2018-09-21T16:10:16.283Z,1.33
2018-09-21T16:13:00.250Z,1.97
2018-09-21T16:15:48.470Z,1.43
2018-09-21T16:18:22.966Z,0.80
2018-09-21T16:20:57.465Z,1.10
2018-09-21T16:23:32.118Z,3.73
2018-09-21T16:26:06.667Z,2.80
2018-09-21T16:28:41.656Z,3.07
2018-09-21T16:31:16.221Z,3.50
2018-09-21T16:33:50.654Z,2.97
2018-09-21T16:36:25.309Z,2.23
2018-09-21T16:39:00.164Z,3.63
2018-09-21T16:41:34.821Z,1.63
2018-09-21T16:44:09.753Z,1.00
2018-09-21T16:46:44.498Z,1.83
2018-09-21T16:49:19.013Z,5.53
2018-09-21T16:51:53.693Z,3.60
2018-09-21T16:54:28.254Z,2.00
2018-09-21T16:57:02.950Z,6.87
2018-09-21T16:59:37.417Z,2.00
2018-09-21T17:02:11.796Z,2.23
2018-09-21T17:04:46.271Z,6.10
2018-09-21T17:07:20.705Z,4.43
2018-09-21T17:09:55.334Z,3.50
2018-09-21T17:12:30.014Z,3.30
2018-09-21T17:15:04.556Z,1.50
2018-09-21T17:17:39.260Z,2.17
2018-09-21T17:20:14.051Z,2.67
2018-09-21T17:22:48.664Z,3.93
2018-09-21T17:25:23.157Z,1.47
2018-09-21T17:27:57.917Z,4.33
2018-09-21T17:30:32.669Z,3.60
2018-09-21T17:33:07.345Z,4.07
2018-09-21T17:35:42.329Z,3.73
2018-09-21T17:38:16.997Z,7.23
2018-09-21T17:40:51.688Z,3.30
2018-09-21T17:43:26.394Z,3.30
2018-09-21T17:46:00.832Z,8.00
2018-09-21T17:48:35.921Z,8.47
2018-09-21T17:51:10.551Z,13.33
2018-09-21T17:53:46.608Z,10.63
2018-09-21T17:56:21.062Z,12.00
2018-09-21T17:58:55.553Z,16.93
2018-09-21T18:01:30.139Z,8.57
2018-09-21T18:04:04.945Z,6.07
2018-09-21T18:06:39.569Z,5.03
2018-09-21T18:09:14.067Z,9.00
2018-09-21T18:11:49.386Z,5.33
2018-09-21T18:14:23.874Z,2.70
2018-09-21T18:16:58.581Z,10.30
2018-09-21T18:19:32.955Z,8.30
2018-09-21T18:22:07.438Z,7.70
2018-09-21T18:24:42.194Z,7.83
2018-09-21T18:27:16.821Z,4.50
2018-09-21T18:29:51.477Z,5.33
2018-09-21T18:32:26.652Z,5.00
2018-09-21T18:35:01.148Z,9.60
2018-09-21T18:37:35.832Z,5.93
2018-09-21T18:40:10.385Z,4.37
2018-09-21T18:42:44.871Z,5.13
2018-09-21T18:45:19.683Z,8.27
2018-09-21T18:47:54.437Z,14.73
2018-09-21T18:50:29.190Z,5.13
2018-09-21T18:53:03.653Z,8.23
2018-09-21T18:58:40.621Z,15.97
2018-09-21T19:01:15.142Z,14.57
2018-09-21T19:03:49.591Z,7.83
2018-09-21T19:06:24.156Z,4.13
2018-09-21T19:08:59.207Z,4.83
2018-09-21T19:11:41.730Z,7.20
2018-09-21T19:14:16.326Z,4.57
2018-09-21T19:16:51.018Z,4.27
2018-09-21T19:19:25.827Z,8.07
2018-09-21T19:22:00.540Z,5.57
2018-09-21T19:24:35.112Z,4.97
2018-09-21T19:27:09.805Z,7.70
2018-09-21T19:29:44.409Z,6.17
2018-09-21T19:32:18.876Z,6.53
2018-09-21T19:34:53.296Z,5.10
2018-09-21T19:37:28.016Z,6.73
2018-09-21T19:40:02.761Z,6.87
2018-09-21T19:42:37.462Z,6.27
2018-09-21T19:45:12.963Z,9.57
2018-09-21T19:47:48.957Z,11.53
2018-09-21T19:50:23.588Z,7.50
2018-09-21T19:52:58.191Z,10.37
2018-09-21T19:55:32.891Z,7.07
2018-09-21T19:58:08.369Z,4.43
2018-09-21T20:00:42.944Z,4.90
2018-09-21T20:03:17.489Z,11.47
2018-09-21T20:05:52.469Z,4.87
2018-09-21T20:08:26.944Z,7.53
2018-09-21T20:11:01.580Z,5.17
2018-09-21T20:13:36.356Z,3.90
2018-09-21T20:16:11.308Z,7.33
2018-09-21T20:18:45.804Z,6.13
2018-09-21T20:21:20.293Z,7.67
2018-09-21T20:23:54.689Z,6.07
2018-09-21T20:26:29.213Z,5.77
2018-09-21T20:29:03.885Z,11.50
2018-09-21T20:32:44.443Z,6.47
2018-09-21T20:35:19.167Z,3.77
2018-09-21T20:37:53.725Z,6.53
2018-09-21T20:40:28.225Z,5.70
2018-09-21T20:43:02.939Z,8.57
2018-09-21T20:45:37.416Z,9.07
2018-09-21T20:48:11.997Z,3.77
2018-09-21T20:50:46.565Z,5.23
2018-09-21T20:53:21.549Z,6.53
2018-09-21T20:55:55.969Z,12.17
2018-09-21T20:58:30.471Z,6.37
2018-09-21T21:01:05.149Z,6.97
2018-09-21T21:03:39.742Z,7.20
2018-09-21T21:06:14.217Z,7.13
2018-09-21T21:08:48.831Z,6.70
2018-09-21T21:11:23.284Z,13.57
2018-09-21T21:13:57.668Z,5.93
2018-09-21T21:16:32.208Z,11.43
2018-09-21T21:19:06.793Z,10.17
2018-09-21T21:21:41.320Z,8.73
2018-09-21T21:24:15.981Z,9.03
2018-09-21T21:26:50.476Z,10.43
2018-09-21T21:29:24.945Z,11.30
2018-09-21T21:31:59.609Z,7.87
2018-09-21T21:34:34.165Z,10.17
2018-09-21T21:37:08.696Z,11.07
2018-09-21T21:39:43.103Z,9.20
2018-09-21T21:42:17.737Z,9.97
2018-09-21T21:44:52.100Z,10.63
2018-09-21T21:47:26.732Z,12.57
2018-09-21T21:50:01.317Z,6.03
2018-09-21T21:52:36.028Z,12.27
2018-09-21T21:55:10.685Z,9.33
2018-09-21T21:57:45.100Z,9.80
2018-09-21T22:00:20.068Z,11.80
2018-09-21T22:02:54.581Z,8.80
2018-09-21T22:05:29.293Z,10.73
2018-09-21T22:08:03.791Z,12.50
2018-09-21T22:10:38.219Z,7.97
2018-09-21T22:13:18.164Z,12.10
2018-09-21T22:15:52.689Z,8.77
2018-09-21T22:18:27.590Z,11.73
2018-09-21T22:21:02.324Z,13.87
2018-09-21T22:23:46.273Z,10.73
2018-09-21T22:26:20.828Z,8.53
2018-09-21T22:28:55.681Z,8.30
2018-09-21T22:31:30.701Z,13.60
2018-09-21T22:34:05.206Z,13.27
2018-09-21T22:36:39.738Z,11.43
2018-09-21T22:39:14.184Z,9.40
2018-09-21T22:41:48.846Z,15.50
2018-09-21T22:44:26.848Z,6.03
2018-09-21T22:47:01.226Z,13.23
2018-09-21T22:49:35.755Z,13.33
2018-09-21T22:52:10.244Z,9.43
2018-09-21T22:54:44.834Z,16.97
2018-09-21T22:57:19.404Z,9.03
2018-09-21T22:59:54.034Z,9.50
2018-09-21T23:05:27.239Z,11.63
2018-09-21T23:08:01.620Z,12.93
2018-09-21T23:10:36.044Z,9.37
2018-09-21T23:13:10.353Z,14.90
2018-09-21T23:15:44.831Z,8.37
2018-09-21T23:18:19.325Z,13.57
2018-09-21T23:20:53.724Z,14.77
2018-09-21T23:23:28.060Z,10.73
2018-09-21T23:26:02.517Z,9.47
2018-09-21T23:28:36.903Z,13.03
2018-09-21T23:31:11.452Z,10.53
2018-09-21T23:33:45.780Z,9.40
2018-09-21T23:36:20.495Z,13.63
2018-09-21T23:38:54.971Z,10.80
2018-09-21T23:41:29.525Z,8.63
2018-09-21T23:44:04.126Z,14.17
2018-09-21T23:46:38.791Z,15.80
2018-09-21T23:49:13.103Z,11.90
2018-09-21T23:51:47.603Z,8.20
2018-09-21T23:54:21.884Z,10.43
2018-09-21T23:56:56.312Z,12.57
2018-09-21T23:59:30.651Z,12.83
